sensor_id;sensor_type;location;lat;lon;timestamp;P1;durP1;ratioP1;P2;durP2;ratioP2
49029;SDS011;43337;52.070;4.508;2022-12-18T00:00:41;102.93;;;24.83;;
49029;SDS011;43337;52.070;4.508;2022-12-18T00:03:07;99.55;;;25.65;;
49029;SDS011;43337;52.070;4.508;2022-12-18T00:05:33;103.68;;;25.88;;
49029;SDS011;43337;52.070;4.508;2022-12-18T00:07:58;93.35;;;26.30;;
49029;SDS011;43337;52.070;4.508;2022-12-18T00:10:23;98.03;;;26.25;;
49029;SDS011;43337;52.070;4.508;2022-12-18T00:12:49;95.53;;;24.75;;
49029;SDS011;43337;52.070;4.508;2022-12-18T00:15:14;90.15;;;25.48;;
49029;SDS011;43337;52.070;4.508;2022-12-18T00:17:40;118.30;;;33.38;;
49029;SDS011;43337;52.070;4.508;2022-12-18T00:20:05;102.50;;;24.48;;
49029;SDS011;43337;52.070;4.508;2022-12-18T00:22:31;92.18;;;25.42;;
49029;SDS011;43337;52.070;4.508;2022-12-18T00:24:56;91.70;;;25.70;;
49029;SDS011;43337;52.070;4.508;2022-12-18T00:27:22;101.57;;;26.63;;
49029;SDS011;43337;52.070;4.508;2022-12-18T00:29:48;91.00;;;25.10;;
49029;SDS011;43337;52.070;4.508;2022-12-18T00:32:13;89.78;;;25.13;;
49029;SDS011;43337;52.070;4.508;2022-12-18T00:34:39;88.90;;;25.17;;
49029;SDS011;43337;52.070;4.508;2022-12-18T00:37:04;95.78;;;24.75;;
49029;SDS011;43337;52.070;4.508;2022-12-18T00:39:30;98.20;;;26.70;;
49029;SDS011;43337;52.070;4.508;2022-12-18T00:41:55;92.30;;;25.85;;
49029;SDS011;43337;52.070;4.508;2022-12-18T00:44:39;102.57;;;26.48;;
49029;SDS011;43337;52.070;4.508;2022-12-18T00:47:04;84.78;;;23.10;;
49029;SDS011;43337;52.070;4.508;2022-12-18T00:49:29;87.38;;;24.10;;
49029;SDS011;43337;52.070;4.508;2022-12-18T00:51:55;87.70;;;23.10;;
49029;SDS011;43337;52.070;4.508;2022-12-18T00:54:20;98.00;;;25.27;;
49029;SDS011;43337;52.070;4.508;2022-12-18T00:56:46;95.68;;;23.63;;
49029;SDS011;43337;52.070;4.508;2022-12-18T00:59:11;105.13;;;25.98;;
49029;SDS011;43337;52.070;4.508;2022-12-18T01:01:36;104.20;;;24.40;;
49029;SDS011;43337;52.070;4.508;2022-12-18T01:04:02;88.40;;;25.30;;
49029;SDS011;43337;52.070;4.508;2022-12-18T01:06:28;89.22;;;25.83;;
49029;SDS011;43337;52.070;4.508;2022-12-18T01:08:54;89.90;;;25.42;;
49029;SDS011;43337;52.070;4.508;2022-12-18T01:11:20;95.38;;;24.70;;
49029;SDS011;43337;52.070;4.508;2022-12-18T01:13:46;97.78;;;25.00;;
49029;SDS011;43337;52.070;4.508;2022-12-18T01:16:14;112.25;;;26.45;;
49029;SDS011;43337;52.070;4.508;2022-12-18T01:18:40;122.38;;;27.15;;
49029;SDS011;43337;52.070;4.508;2022-12-18T01:21:07;112.95;;;26.92;;
49029;SDS011;43337;52.070;4.508;2022-12-18T01:23:33;105.97;;;26.13;;
49029;SDS011;43337;52.070;4.508;2022-12-18T01:26:03;102.90;;;24.80;;
49029;SDS011;43337;52.070;4.508;2022-12-18T01:28:29;108.13;;;28.40;;
49029;SDS011;43337;52.070;4.508;2022-12-18T01:30:55;118.13;;;27.50;;
49029;SDS011;43337;52.070;4.508;2022-12-18T01:33:20;123.97;;;25.95;;
49029;SDS011;43337;52.070;4.508;2022-12-18T01:35:45;93.38;;;24.67;;
49029;SDS011;43337;52.070;4.508;2022-12-18T01:38:11;87.18;;;25.30;;
49029;SDS011;43337;52.070;4.508;2022-12-18T01:40:36;90.80;;;24.88;;
49029;SDS011;43337;52.070;4.508;2022-12-18T01:43:02;81.90;;;21.05;;
49029;SDS011;43337;52.070;4.508;2022-12-18T01:45:29;97.63;;;25.63;;
49029;SDS011;43337;52.070;4.508;2022-12-18T01:48:00;91.28;;;23.70;;
49029;SDS011;43337;52.070;4.508;2022-12-18T01:50:30;124.80;;;25.90;;
49029;SDS011;43337;52.070;4.508;2022-12-18T01:52:58;107.80;;;25.10;;
49029;SDS011;43337;52.070;4.508;2022-12-18T01:55:29;82.35;;;24.10;;
49029;SDS011;43337;52.070;4.508;2022-12-18T01:57:57;89.07;;;24.08;;
49029;SDS011;43337;52.070;4.508;2022-12-18T02:00:24;76.07;;;24.73;;
49029;SDS011;43337;52.070;4.508;2022-12-18T02:02:51;98.45;;;23.27;;
49029;SDS011;43337;52.070;4.508;2022-12-18T02:05:19;106.40;;;24.65;;
49029;SDS011;43337;52.070;4.508;2022-12-18T02:08:01;94.47;;;24.52;;
49029;SDS011;43337;52.070;4.508;2022-12-18T02:10:43;93.10;;;23.05;;
49029;SDS011;43337;52.070;4.508;2022-12-18T02:13:27;111.63;;;23.65;;
49029;SDS011;43337;52.070;4.508;2022-12-18T02:16:13;95.03;;;22.65;;
49029;SDS011;43337;52.070;4.508;2022-12-18T02:18:46;94.78;;;23.13;;
49029;SDS011;43337;52.070;4.508;2022-12-18T02:27:01;102.70;;;23.25;;
49029;SDS011;43337;52.070;4.508;2022-12-18T02:29:31;110.55;;;22.88;;
49029;SDS011;43337;52.070;4.508;2022-12-18T02:32:02;88.43;;;21.80;;
49029;SDS011;43337;52.070;4.508;2022-12-18T02:34:34;88.32;;;21.90;;
49029;SDS011;43337;52.070;4.508;2022-12-18T02:37:04;78.07;;;19.63;;
49029;SDS011;43337;52.070;4.508;2022-12-18T02:39:33;75.55;;;22.00;;
49029;SDS011;43337;52.070;4.508;2022-12-18T02:41:59;143.00;;;24.42;;
49029;SDS011;43337;52.070;4.508;2022-12-18T02:44:32;71.18;;;20.73;;
49029;SDS011;43337;52.070;4.508;2022-12-18T02:46:58;68.78;;;20.17;;
49029;SDS011;43337;52.070;4.508;2022-12-18T02:54:39;64.70;;;19.08;;
49029;SDS011;43337;52.070;4.508;2022-12-18T02:57:21;87.65;;;19.40;;
49029;SDS011;43337;52.070;4.508;2022-12-18T03:00:14;72.93;;;20.70;;
49029;SDS011;43337;52.070;4.508;2022-12-18T03:02:50;73.10;;;22.35;;
49029;SDS011;43337;52.070;4.508;2022-12-18T03:05:25;101.75;;;21.52;;
49029;SDS011;43337;52.070;4.508;2022-12-18T03:07:56;88.35;;;20.05;;
49029;SDS011;43337;52.070;4.508;2022-12-18T03:10:28;128.55;;;21.65;;
49029;SDS011;43337;52.070;4.508;2022-12-18T03:13:03;64.10;;;20.83;;
49029;SDS011;43337;52.070;4.508;2022-12-18T03:15:42;64.95;;;19.95;;
49029;SDS011;43337;52.070;4.508;2022-12-18T03:18:19;71.93;;;19.52;;
49029;SDS011;43337;52.070;4.508;2022-12-18T03:21:00;72.13;;;20.23;;
49029;SDS011;43337;52.070;4.508;2022-12-18T03:23:32;79.10;;;20.63;;
49029;SDS011;43337;52.070;4.508;2022-12-18T03:26:05;73.75;;;21.00;;
49029;SDS011;43337;52.070;4.508;2022-12-18T03:28:36;81.80;;;20.38;;
49029;SDS011;43337;52.070;4.508;2022-12-18T03:31:07;75.40;;;19.30;;
49029;SDS011;43337;52.070;4.508;2022-12-18T03:33:38;73.60;;;19.38;;
49029;SDS011;43337;52.070;4.508;2022-12-18T03:36:19;70.35;;;20.30;;
49029;SDS011;43337;52.070;4.508;2022-12-18T03:38:44;69.60;;;19.48;;
49029;SDS011;43337;52.070;4.508;2022-12-18T03:44:14;78.88;;;22.40;;
49029;SDS011;43337;52.070;4.508;2022-12-18T03:47:07;69.33;;;19.37;;
49029;SDS011;43337;52.070;4.508;2022-12-18T03:49:47;70.38;;;19.95;;
49029;SDS011;43337;52.070;4.508;2022-12-18T03:52:36;66.53;;;19.65;;
49029;SDS011;43337;52.070;4.508;2022-12-18T03:55:07;70.20;;;21.02;;
49029;SDS011;43337;52.070;4.508;2022-12-18T03:57:34;93.43;;;22.27;;
49029;SDS011;43337;52.070;4.508;2022-12-18T04:00:03;73.68;;;20.88;;
49029;SDS011;43337;52.070;4.508;2022-12-18T04:02:34;72.20;;;20.25;;
49029;SDS011;43337;52.070;4.508;2022-12-18T04:05:03;78.65;;;21.90;;
49029;SDS011;43337;52.070;4.508;2022-12-18T04:07:31;76.45;;;20.88;;
49029;SDS011;43337;52.070;4.508;2022-12-18T04:09:58;75.22;;;22.65;;
49029;SDS011;43337;52.070;4.508;2022-12-18T04:12:26;59.92;;;18.48;;
49029;SDS011;43337;52.070;4.508;2022-12-18T04:14:54;71.03;;;19.67;;
49029;SDS011;43337;52.070;4.508;2022-12-18T04:17:20;67.43;;;19.13;;
49029;SDS011;43337;52.070;4.508;2022-12-18T04:19:47;75.63;;;20.70;;
49029;SDS011;43337;52.070;4.508;2022-12-18T04:22:13;55.00;;;18.83;;
49029;SDS011;43337;52.070;4.508;2022-12-18T04:24:38;66.07;;;18.88;;
49029;SDS011;43337;52.070;4.508;2022-12-18T04:27:04;68.68;;;19.58;;
49029;SDS011;43337;52.070;4.508;2022-12-18T04:29:29;70.97;;;20.95;;
49029;SDS011;43337;52.070;4.508;2022-12-18T04:31:55;69.20;;;19.20;;
49029;SDS011;43337;52.070;4.508;2022-12-18T04:34:20;65.82;;;19.40;;
49029;SDS011;43337;52.070;4.508;2022-12-18T04:36:46;67.38;;;20.65;;
49029;SDS011;43337;52.070;4.508;2022-12-18T04:39:11;67.57;;;18.83;;
49029;SDS011;43337;52.070;4.508;2022-12-18T04:41:37;61.95;;;19.35;;
49029;SDS011;43337;52.070;4.508;2022-12-18T04:44:02;62.92;;;18.52;;
49029;SDS011;43337;52.070;4.508;2022-12-18T04:46:28;64.32;;;18.95;;
49029;SDS011;43337;52.070;4.508;2022-12-18T04:48:53;63.38;;;21.00;;
49029;SDS011;43337;52.070;4.508;2022-12-18T04:51:19;70.50;;;20.52;;
49029;SDS011;43337;52.070;4.508;2022-12-18T04:53:44;66.28;;;19.33;;
49029;SDS011;43337;52.070;4.508;2022-12-18T04:56:10;72.75;;;21.20;;
49029;SDS011;43337;52.070;4.508;2022-12-18T04:58:38;60.78;;;19.02;;
49029;SDS011;43337;52.070;4.508;2022-12-18T05:01:05;67.13;;;18.20;;
49029;SDS011;43337;52.070;4.508;2022-12-18T05:03:32;71.85;;;20.90;;
49029;SDS011;43337;52.070;4.508;2022-12-18T05:05:58;82.03;;;21.35;;
49029;SDS011;43337;52.070;4.508;2022-12-18T05:08:24;66.78;;;19.98;;
49029;SDS011;43337;52.070;4.508;2022-12-18T05:10:49;72.90;;;21.42;;
49029;SDS011;43337;52.070;4.508;2022-12-18T05:13:15;63.30;;;20.67;;
49029;SDS011;43337;52.070;4.508;2022-12-18T05:15:40;70.25;;;21.48;;
49029;SDS011;43337;52.070;4.508;2022-12-18T05:18:06;64.55;;;18.35;;
49029;SDS011;43337;52.070;4.508;2022-12-18T05:20:33;62.95;;;19.15;;
49029;SDS011;43337;52.070;4.508;2022-12-18T05:22:58;65.00;;;19.75;;
49029;SDS011;43337;52.070;4.508;2022-12-18T05:25:24;62.63;;;19.50;;
49029;SDS011;43337;52.070;4.508;2022-12-18T05:27:49;58.92;;;20.42;;
49029;SDS011;43337;52.070;4.508;2022-12-18T05:30:15;63.60;;;17.67;;
49029;SDS011;43337;52.070;4.508;2022-12-18T05:32:41;58.00;;;19.42;;
49029;SDS011;43337;52.070;4.508;2022-12-18T05:35:07;62.65;;;20.05;;
49029;SDS011;43337;52.070;4.508;2022-12-18T05:37:34;68.53;;;18.88;;
49029;SDS011;43337;52.070;4.508;2022-12-18T05:40:00;59.92;;;18.20;;
49029;SDS011;43337;52.070;4.508;2022-12-18T05:42:26;62.65;;;20.00;;
49029;SDS011;43337;52.070;4.508;2022-12-18T05:44:51;66.43;;;20.08;;
49029;SDS011;43337;52.070;4.508;2022-12-18T05:47:17;61.00;;;18.75;;
49029;SDS011;43337;52.070;4.508;2022-12-18T05:49:42;58.65;;;19.08;;
49029;SDS011;43337;52.070;4.508;2022-12-18T05:52:08;68.78;;;20.55;;
49029;SDS011;43337;52.070;4.508;2022-12-18T05:54:33;61.05;;;19.10;;
49029;SDS011;43337;52.070;4.508;2022-12-18T05:56:59;70.10;;;20.30;;
49029;SDS011;43337;52.070;4.508;2022-12-18T05:59:24;71.43;;;20.52;;
49029;SDS011;43337;52.070;4.508;2022-12-18T06:01:50;63.88;;;19.02;;
49029;SDS011;43337;52.070;4.508;2022-12-18T06:04:15;59.60;;;18.75;;
49029;SDS011;43337;52.070;4.508;2022-12-18T06:06:40;61.28;;;18.35;;
49029;SDS011;43337;52.070;4.508;2022-12-18T06:09:06;64.85;;;17.80;;
49029;SDS011;43337;52.070;4.508;2022-12-18T06:11:34;61.95;;;19.00;;
49029;SDS011;43337;52.070;4.508;2022-12-18T06:14:04;56.75;;;18.73;;
49029;SDS011;43337;52.070;4.508;2022-12-18T06:16:31;67.93;;;19.17;;
49029;SDS011;43337;52.070;4.508;2022-12-18T06:18:57;58.42;;;18.98;;
49029;SDS011;43337;52.070;4.508;2022-12-18T06:21:27;56.05;;;19.08;;
49029;SDS011;43337;52.070;4.508;2022-12-18T06:23:53;57.67;;;19.10;;
49029;SDS011;43337;52.070;4.508;2022-12-18T06:26:18;68.50;;;19.50;;
49029;SDS011;43337;52.070;4.508;2022-12-18T06:28:44;63.35;;;20.35;;
49029;SDS011;43337;52.070;4.508;2022-12-18T06:31:10;61.35;;;19.35;;
49029;SDS011;43337;52.070;4.508;2022-12-18T06:33:36;59.58;;;18.60;;
49029;SDS011;43337;52.070;4.508;2022-12-18T06:36:06;56.67;;;17.83;;
49029;SDS011;43337;52.070;4.508;2022-12-18T06:38:34;52.25;;;17.00;;
49029;SDS011;43337;52.070;4.508;2022-12-18T06:41:05;52.30;;;17.95;;
49029;SDS011;43337;52.070;4.508;2022-12-18T06:43:41;51.88;;;17.77;;
49029;SDS011;43337;52.070;4.508;2022-12-18T06:46:08;37.55;;;13.00;;
49029;SDS011;43337;52.070;4.508;2022-12-18T06:48:33;43.15;;;15.05;;
49029;SDS011;43337;52.070;4.508;2022-12-18T06:50:59;54.33;;;16.85;;
49029;SDS011;43337;52.070;4.508;2022-12-18T06:53:25;45.83;;;16.20;;
49029;SDS011;43337;52.070;4.508;2022-12-18T06:55:50;51.50;;;17.15;;
49029;SDS011;43337;52.070;4.508;2022-12-18T06:58:16;51.30;;;16.10;;
49029;SDS011;43337;52.070;4.508;2022-12-18T07:00:41;52.35;;;15.65;;
49029;SDS011;43337;52.070;4.508;2022-12-18T07:03:07;53.08;;;16.17;;
49029;SDS011;43337;52.070;4.508;2022-12-18T07:05:32;50.30;;;16.80;;
49029;SDS011;43337;52.070;4.508;2022-12-18T07:07:58;42.25;;;14.35;;
49029;SDS011;43337;52.070;4.508;2022-12-18T07:10:23;49.63;;;15.57;;
49029;SDS011;43337;52.070;4.508;2022-12-18T07:12:49;47.08;;;16.88;;
49029;SDS011;43337;52.070;4.508;2022-12-18T07:15:14;42.97;;;14.07;;
49029;SDS011;43337;52.070;4.508;2022-12-18T07:17:40;47.88;;;15.77;;
49029;SDS011;43337;52.070;4.508;2022-12-18T07:20:05;37.97;;;13.27;;
49029;SDS011;43337;52.070;4.508;2022-12-18T07:22:31;42.22;;;15.23;;
49029;SDS011;43337;52.070;4.508;2022-12-18T07:24:56;36.88;;;13.93;;
49029;SDS011;43337;52.070;4.508;2022-12-18T07:27:22;45.08;;;15.00;;
49029;SDS011;43337;52.070;4.508;2022-12-18T07:29:47;38.65;;;15.65;;
49029;SDS011;43337;52.070;4.508;2022-12-18T07:32:13;41.53;;;15.15;;
49029;SDS011;43337;52.070;4.508;2022-12-18T07:34:38;47.20;;;15.13;;
49029;SDS011;43337;52.070;4.508;2022-12-18T07:37:03;40.25;;;14.05;;
49029;SDS011;43337;52.070;4.508;2022-12-18T07:39:29;42.47;;;15.05;;
49029;SDS011;43337;52.070;4.508;2022-12-18T07:41:55;41.80;;;14.63;;
49029;SDS011;43337;52.070;4.508;2022-12-18T07:44:38;42.40;;;14.70;;
49029;SDS011;43337;52.070;4.508;2022-12-18T07:47:04;37.35;;;13.45;;
49029;SDS011;43337;52.070;4.508;2022-12-18T07:49:29;38.80;;;13.98;;
49029;SDS011;43337;52.070;4.508;2022-12-18T07:51:55;43.80;;;14.63;;
49029;SDS011;43337;52.070;4.508;2022-12-18T07:54:22;43.35;;;14.98;;
49029;SDS011;43337;52.070;4.508;2022-12-18T07:56:48;38.17;;;14.07;;
49029;SDS011;43337;52.070;4.508;2022-12-18T07:59:14;38.00;;;13.77;;
49029;SDS011;43337;52.070;4.508;2022-12-18T08:01:39;35.05;;;12.70;;
49029;SDS011;43337;52.070;4.508;2022-12-18T08:04:05;38.08;;;13.60;;
49029;SDS011;43337;52.070;4.508;2022-12-18T08:06:30;34.53;;;13.45;;
49029;SDS011;43337;52.070;4.508;2022-12-18T08:08:56;36.25;;;13.35;;
49029;SDS011;43337;52.070;4.508;2022-12-18T08:11:22;41.38;;;13.77;;
49029;SDS011;43337;52.070;4.508;2022-12-18T08:13:49;35.38;;;12.80;;
49029;SDS011;43337;52.070;4.508;2022-12-18T08:16:14;33.13;;;13.30;;
49029;SDS011;43337;52.070;4.508;2022-12-18T08:18:40;33.08;;;14.00;;
49029;SDS011;43337;52.070;4.508;2022-12-18T08:21:09;37.90;;;14.75;;
49029;SDS011;43337;52.070;4.508;2022-12-18T08:23:37;38.70;;;13.75;;
49029;SDS011;43337;52.070;4.508;2022-12-18T08:26:03;37.70;;;14.65;;
49029;SDS011;43337;52.070;4.508;2022-12-18T08:28:28;37.25;;;14.43;;
49029;SDS011;43337;52.070;4.508;2022-12-18T08:30:54;37.67;;;12.95;;
49029;SDS011;43337;52.070;4.508;2022-12-18T08:33:19;32.10;;;12.05;;
49029;SDS011;43337;52.070;4.508;2022-12-18T08:35:45;35.80;;;13.18;;
49029;SDS011;43337;52.070;4.508;2022-12-18T08:38:10;33.03;;;12.90;;
49029;SDS011;43337;52.070;4.508;2022-12-18T08:40:35;38.03;;;14.90;;
49029;SDS011;43337;52.070;4.508;2022-12-18T08:43:01;37.67;;;14.23;;
49029;SDS011;43337;52.070;4.508;2022-12-18T08:45:44;33.20;;;13.07;;
49029;SDS011;43337;52.070;4.508;2022-12-18T08:48:10;37.75;;;13.23;;
49029;SDS011;43337;52.070;4.508;2022-12-18T08:50:35;30.42;;;13.02;;
49029;SDS011;43337;52.070;4.508;2022-12-18T08:53:01;34.17;;;14.68;;
49029;SDS011;43337;52.070;4.508;2022-12-18T08:55:26;34.25;;;13.15;;
49029;SDS011;43337;52.070;4.508;2022-12-18T08:57:51;37.97;;;14.05;;
49029;SDS011;43337;52.070;4.508;2022-12-18T09:00:17;30.52;;;12.48;;
49029;SDS011;43337;52.070;4.508;2022-12-18T09:02:42;35.08;;;12.63;;
49029;SDS011;43337;52.070;4.508;2022-12-18T09:05:08;35.47;;;14.35;;
49029;SDS011;43337;52.070;4.508;2022-12-18T09:07:33;32.30;;;12.50;;
49029;SDS011;43337;52.070;4.508;2022-12-18T09:09:59;30.98;;;13.00;;
49029;SDS011;43337;52.070;4.508;2022-12-18T09:12:26;33.92;;;13.45;;
49029;SDS011;43337;52.070;4.508;2022-12-18T09:14:51;27.90;;;12.45;;
49029;SDS011;43337;52.070;4.508;2022-12-18T09:17:16;31.00;;;12.20;;
49029;SDS011;43337;52.070;4.508;2022-12-18T09:19:42;32.38;;;13.63;;
49029;SDS011;43337;52.070;4.508;2022-12-18T09:22:08;35.00;;;12.07;;
49029;SDS011;43337;52.070;4.508;2022-12-18T09:24:34;31.90;;;13.70;;
49029;SDS011;43337;52.070;4.508;2022-12-18T09:26:59;30.88;;;12.05;;
49029;SDS011;43337;52.070;4.508;2022-12-18T09:29:25;30.23;;;12.13;;
49029;SDS011;43337;52.070;4.508;2022-12-18T09:31:50;37.40;;;13.35;;
49029;SDS011;43337;52.070;4.508;2022-12-18T09:34:16;32.53;;;13.88;;
49029;SDS011;43337;52.070;4.508;2022-12-18T09:36:41;31.35;;;12.32;;
49029;SDS011;43337;52.070;4.508;2022-12-18T09:39:07;31.25;;;12.55;;
49029;SDS011;43337;52.070;4.508;2022-12-18T09:43:59;30.70;;;12.77;;
49029;SDS011;43337;52.070;4.508;2022-12-18T09:46:29;31.60;;;12.98;;
49029;SDS011;43337;52.070;4.508;2022-12-18T09:49:00;30.27;;;13.45;;
49029;SDS011;43337;52.070;4.508;2022-12-18T09:51:30;26.90;;;12.68;;
49029;SDS011;43337;52.070;4.508;2022-12-18T09:54:07;28.80;;;12.23;;
49029;SDS011;43337;52.070;4.508;2022-12-18T09:56:40;31.15;;;12.88;;
49029;SDS011;43337;52.070;4.508;2022-12-18T09:59:14;34.83;;;13.13;;
49029;SDS011;43337;52.070;4.508;2022-12-18T10:01:48;29.92;;;11.98;;
49029;SDS011;43337;52.070;4.508;2022-12-18T10:04:13;30.10;;;13.05;;
49029;SDS011;43337;52.070;4.508;2022-12-18T10:07:02;33.53;;;13.75;;
49029;SDS011;43337;52.070;4.508;2022-12-18T10:10:31;34.90;;;12.98;;
49029;SDS011;43337;52.070;4.508;2022-12-18T10:16:19;29.67;;;11.32;;
49029;SDS011;43337;52.070;4.508;2022-12-18T10:21:49;25.08;;;11.55;;
49029;SDS011;43337;52.070;4.508;2022-12-18T10:27:14;25.17;;;11.73;;
49029;SDS011;43337;52.070;4.508;2022-12-18T10:29:46;26.98;;;11.45;;
49029;SDS011;43337;52.070;4.508;2022-12-18T10:32:13;28.95;;;12.93;;
49029;SDS011;43337;52.070;4.508;2022-12-18T10:34:43;28.15;;;10.77;;
49029;SDS011;43337;52.070;4.508;2022-12-18T10:37:12;29.10;;;12.35;;
49029;SDS011;43337;52.070;4.508;2022-12-18T10:39:44;28.90;;;12.50;;
49029;SDS011;43337;52.070;4.508;2022-12-18T10:42:15;23.25;;;10.60;;
49029;SDS011;43337;52.070;4.508;2022-12-18T10:44:42;28.55;;;11.85;;
49029;SDS011;43337;52.070;4.508;2022-12-18T10:47:10;30.67;;;12.23;;
49029;SDS011;43337;52.070;4.508;2022-12-18T10:49:40;27.70;;;10.65;;
49029;SDS011;43337;52.070;4.508;2022-12-18T10:52:20;34.08;;;14.02;;
49029;SDS011;43337;52.070;4.508;2022-12-18T10:54:48;34.15;;;14.60;;
49029;SDS011;43337;52.070;4.508;2022-12-18T10:57:17;30.10;;;12.05;;
49029;SDS011;43337;52.070;4.508;2022-12-18T10:59:53;26.65;;;11.10;;
49029;SDS011;43337;52.070;4.508;2022-12-18T11:02:28;30.33;;;12.10;;
49029;SDS011;43337;52.070;4.508;2022-12-18T11:05:00;25.73;;;11.00;;
49029;SDS011;43337;52.070;4.508;2022-12-18T11:07:26;26.65;;;11.45;;
49029;SDS011;43337;52.070;4.508;2022-12-18T11:10:20;26.60;;;12.18;;
49029;SDS011;43337;52.070;4.508;2022-12-18T11:12:47;26.75;;;11.52;;
49029;SDS011;43337;52.070;4.508;2022-12-18T11:15:15;27.65;;;12.23;;
49029;SDS011;43337;52.070;4.508;2022-12-18T11:17:51;28.55;;;11.45;;
49029;SDS011;43337;52.070;4.508;2022-12-18T11:20:23;26.80;;;11.82;;
49029;SDS011;43337;52.070;4.508;2022-12-18T11:22:55;28.42;;;11.77;;
49029;SDS011;43337;52.070;4.508;2022-12-18T11:25:22;26.55;;;11.48;;
49029;SDS011;43337;52.070;4.508;2022-12-18T11:27:52;27.15;;;12.20;;
49029;SDS011;43337;52.070;4.508;2022-12-18T11:30:24;29.38;;;11.30;;
49029;SDS011;43337;52.070;4.508;2022-12-18T11:33:06;23.88;;;11.25;;
49029;SDS011;43337;52.070;4.508;2022-12-18T11:35:47;29.17;;;12.07;;
49029;SDS011;43337;52.070;4.508;2022-12-18T11:44:10;28.13;;;11.00;;
49029;SDS011;43337;52.070;4.508;2022-12-18T11:47:13;23.83;;;10.48;;
49029;SDS011;43337;52.070;4.508;2022-12-18T11:49:50;30.48;;;12.57;;
49029;SDS011;43337;52.070;4.508;2022-12-18T11:52:18;22.20;;;10.93;;
49029;SDS011;43337;52.070;4.508;2022-12-18T11:54:50;26.17;;;12.13;;
49029;SDS011;43337;52.070;4.508;2022-12-18T12:05:50;27.35;;;11.85;;
49029;SDS011;43337;52.070;4.508;2022-12-18T12:08:34;31.58;;;11.70;;
49029;SDS011;43337;52.070;4.508;2022-12-18T12:16:50;28.55;;;10.77;;
49029;SDS011;43337;52.070;4.508;2022-12-18T12:22:13;29.08;;;12.65;;
49029;SDS011;43337;52.070;4.508;2022-12-18T12:30:09;27.98;;;11.40;;
49029;SDS011;43337;52.070;4.508;2022-12-18T12:38:26;26.92;;;13.05;;
49029;SDS011;43337;52.070;4.508;2022-12-18T12:40:59;32.22;;;12.48;;
49029;SDS011;43337;52.070;4.508;2022-12-18T12:43:57;26.15;;;11.48;;
49029;SDS011;43337;52.070;4.508;2022-12-18T12:46:25;29.27;;;12.13;;
49029;SDS011;43337;52.070;4.508;2022-12-18T12:51:21;29.10;;;12.07;;
49029;SDS011;43337;52.070;4.508;2022-12-18T12:54:01;31.70;;;12.75;;
49029;SDS011;43337;52.070;4.508;2022-12-18T12:56:36;29.10;;;11.93;;
49029;SDS011;43337;52.070;4.508;2022-12-18T13:07:12;25.90;;;11.63;;
49029;SDS011;43337;52.070;4.508;2022-12-18T13:15:43;25.05;;;11.15;;
49029;SDS011;43337;52.070;4.508;2022-12-18T13:25:53;30.00;;;12.65;;
49029;SDS011;43337;52.070;4.508;2022-12-18T13:34:21;29.20;;;12.23;;
49029;SDS011;43337;52.070;4.508;2022-12-18T13:36:47;30.15;;;12.38;;
49029;SDS011;43337;52.070;4.508;2022-12-18T13:41:45;30.48;;;11.93;;
49029;SDS011;43337;52.070;4.508;2022-12-18T13:46:49;26.08;;;11.52;;
49029;SDS011;43337;52.070;4.508;2022-12-18T13:51:51;31.95;;;11.77;;
49029;SDS011;43337;52.070;4.508;2022-12-18T13:54:21;27.58;;;11.65;;
49029;SDS011;43337;52.070;4.508;2022-12-18T13:59:56;26.80;;;10.90;;
49029;SDS011;43337;52.070;4.508;2022-12-18T14:02:25;28.02;;;12.55;;
49029;SDS011;43337;52.070;4.508;2022-12-18T14:04:53;29.98;;;13.07;;
49029;SDS011;43337;52.070;4.508;2022-12-18T14:07:23;31.40;;;12.23;;
49029;SDS011;43337;52.070;4.508;2022-12-18T14:09:51;33.72;;;11.77;;
49029;SDS011;43337;52.070;4.508;2022-12-18T14:12:22;31.10;;;12.52;;
49029;SDS011;43337;52.070;4.508;2022-12-18T14:15:31;30.08;;;12.45;;
49029;SDS011;43337;52.070;4.508;2022-12-18T14:18:02;27.50;;;10.93;;
49029;SDS011;43337;52.070;4.508;2022-12-18T14:20:41;27.38;;;11.95;;
49029;SDS011;43337;52.070;4.508;2022-12-18T14:28:53;29.73;;;11.88;;
49029;SDS011;43337;52.070;4.508;2022-12-18T14:31:27;27.85;;;11.45;;
49029;SDS011;43337;52.070;4.508;2022-12-18T14:33:55;26.98;;;11.75;;
49029;SDS011;43337;52.070;4.508;2022-12-18T14:36:21;30.55;;;12.73;;
49029;SDS011;43337;52.070;4.508;2022-12-18T14:38:55;44.35;;;19.55;;
49029;SDS011;43337;52.070;4.508;2022-12-18T14:41:22;39.53;;;14.18;;
49029;SDS011;43337;52.070;4.508;2022-12-18T14:43:50;28.98;;;12.57;;
49029;SDS011;43337;52.070;4.508;2022-12-18T14:48:57;28.33;;;12.20;;
49029;SDS011;43337;52.070;4.508;2022-12-18T14:51:25;27.50;;;12.05;;
49029;SDS011;43337;52.070;4.508;2022-12-18T14:53:53;32.25;;;12.45;;
49029;SDS011;43337;52.070;4.508;2022-12-18T14:56:21;31.33;;;13.82;;
49029;SDS011;43337;52.070;4.508;2022-12-18T14:58:48;32.17;;;14.73;;
49029;SDS011;43337;52.070;4.508;2022-12-18T15:01:20;30.35;;;12.80;;
49029;SDS011;43337;52.070;4.508;2022-12-18T15:03:49;30.48;;;12.77;;
49029;SDS011;43337;52.070;4.508;2022-12-18T15:06:37;29.17;;;12.27;;
49029;SDS011;43337;52.070;4.508;2022-12-18T15:09:18;26.70;;;12.05;;
49029;SDS011;43337;52.070;4.508;2022-12-18T15:11:47;31.58;;;13.27;;
49029;SDS011;43337;52.070;4.508;2022-12-18T15:14:23;30.02;;;12.15;;
49029;SDS011;43337;52.070;4.508;2022-12-18T15:16:55;34.13;;;12.77;;
49029;SDS011;43337;52.070;4.508;2022-12-18T15:19:21;27.40;;;12.38;;
49029;SDS011;43337;52.070;4.508;2022-12-18T15:21:57;29.83;;;12.02;;
49029;SDS011;43337;52.070;4.508;2022-12-18T15:24:24;29.75;;;12.93;;
49029;SDS011;43337;52.070;4.508;2022-12-18T15:26:56;27.30;;;12.90;;
49029;SDS011;43337;52.070;4.508;2022-12-18T15:29:21;28.50;;;12.20;;
49029;SDS011;43337;52.070;4.508;2022-12-18T15:32:00;28.48;;;11.52;;
49029;SDS011;43337;52.070;4.508;2022-12-18T15:34:29;29.77;;;12.23;;
49029;SDS011;43337;52.070;4.508;2022-12-18T15:36:56;33.78;;;14.05;;
49029;SDS011;43337;52.070;4.508;2022-12-18T15:39:21;32.20;;;13.30;;
49029;SDS011;43337;52.070;4.508;2022-12-18T15:41:47;33.42;;;13.65;;
49029;SDS011;43337;52.070;4.508;2022-12-18T15:44:30;31.42;;;12.75;;
49029;SDS011;43337;52.070;4.508;2022-12-18T15:46:56;28.25;;;12.95;;
49029;SDS011;43337;52.070;4.508;2022-12-18T15:49:22;31.58;;;12.95;;
49029;SDS011;43337;52.070;4.508;2022-12-18T15:51:49;29.85;;;12.80;;
49029;SDS011;43337;52.070;4.508;2022-12-18T15:54:18;30.05;;;13.32;;
49029;SDS011;43337;52.070;4.508;2022-12-18T15:57:03;30.80;;;12.77;;
49029;SDS011;43337;52.070;4.508;2022-12-18T15:59:47;31.23;;;12.65;;
49029;SDS011;43337;52.070;4.508;2022-12-18T16:02:14;31.75;;;13.57;;
49029;SDS011;43337;52.070;4.508;2022-12-18T16:04:42;34.40;;;14.45;;
49029;SDS011;43337;52.070;4.508;2022-12-18T16:07:08;34.15;;;14.43;;
49029;SDS011;43337;52.070;4.508;2022-12-18T16:09:34;31.88;;;13.70;;
49029;SDS011;43337;52.070;4.508;2022-12-18T16:12:00;34.53;;;14.77;;
49029;SDS011;43337;52.070;4.508;2022-12-18T16:14:26;30.02;;;12.82;;
49029;SDS011;43337;52.070;4.508;2022-12-18T16:16:55;35.10;;;13.38;;
49029;SDS011;43337;52.070;4.508;2022-12-18T16:19:22;30.48;;;12.45;;
49029;SDS011;43337;52.070;4.508;2022-12-18T16:21:49;30.88;;;13.88;;